createdAt,value
2019-03-29T00:00:48.080Z,63.80
2019-03-29T00:04:46.703Z,62.87
2019-03-29T00:08:49.389Z,57.63
2019-03-29T00:12:48.011Z,52.50
2019-03-29T00:16:46.716Z,57.50
2019-03-29T00:20:45.363Z,56.97
2019-03-29T00:24:43.920Z,57.60
2019-03-29T00:28:42.525Z,58.90
2019-03-29T00:32:41.122Z,58.63
2019-03-29T00:36:40.012Z,54.53
2019-03-29T00:40:38.611Z,62.43
2019-03-29T00:44:37.175Z,55.63
2019-03-29T00:48:36.105Z,57.27
2019-03-29T00:52:34.973Z,68.40
2019-03-29T00:56:33.568Z,57.33
2019-03-29T01:00:36.479Z,57.83
2019-03-29T01:04:35.026Z,56.90
2019-03-29T01:08:33.631Z,64.27
2019-03-29T01:12:32.958Z,57.10
2019-03-29T01:16:31.828Z,54.27
2019-03-29T01:20:30.793Z,59.27
2019-03-29T01:24:33.522Z,60.00
2019-03-29T01:28:32.158Z,56.10
2019-03-29T01:32:30.776Z,54.37
2019-03-29T01:36:29.439Z,56.67
2019-03-29T01:40:29.933Z,56.50
2019-03-29T01:44:28.629Z,59.80
2019-03-29T01:48:27.189Z,54.17
2019-03-29T01:52:25.879Z,59.40
2019-03-29T01:56:24.717Z,55.27
2019-03-29T02:00:31.875Z,58.50
2019-03-29T02:04:30.472Z,56.90
2019-03-29T02:08:35.732Z,51.60
2019-03-29T02:12:29.561Z,55.40
2019-03-29T02:16:31.101Z,50.40
2019-03-29T02:20:40.268Z,50.93
2019-03-29T02:24:38.882Z,48.90
2019-03-29T02:28:37.487Z,58.47
2019-03-29T02:32:36.139Z,52.57
2019-03-29T02:36:34.974Z,54.93
2019-03-29T02:40:33.938Z,51.13
2019-03-29T02:44:35.015Z,50.87
2019-03-29T02:48:33.966Z,45.47
2019-03-29T02:52:33.033Z,52.47
2019-03-29T02:56:31.675Z,49.67
2019-03-29T03:00:30.286Z,47.97
2019-03-29T03:04:28.874Z,57.53
2019-03-29T03:08:27.630Z,48.23
2019-03-29T03:12:29.231Z,44.73
2019-03-29T03:16:28.412Z,46.50
2019-03-29T03:20:27.106Z,51.33
2019-03-29T03:24:25.737Z,48.70
2019-03-29T03:28:24.340Z,49.63
2019-03-29T03:32:23.295Z,45.77
2019-03-29T03:36:21.888Z,44.50
2019-03-29T03:40:20.583Z,43.33
2019-03-29T03:44:19.568Z,45.47
2019-03-29T03:48:18.541Z,45.00
2019-03-29T03:52:21.178Z,42.43
2019-03-29T03:56:21.787Z,52.13
2019-03-29T04:00:23.439Z,44.03
2019-03-29T04:04:22.034Z,38.50
2019-03-29T04:08:21.157Z,39.03
2019-03-29T04:12:19.746Z,43.33
2019-03-29T04:16:19.775Z,46.87
2019-03-29T04:20:18.375Z,41.93
2019-03-29T04:24:16.977Z,43.43
2019-03-29T04:28:15.563Z,40.77
2019-03-29T04:32:17.122Z,44.53
2019-03-29T04:36:15.711Z,34.67
2019-03-29T04:40:14.629Z,37.17
2019-03-29T04:44:17.612Z,35.53
2019-03-29T04:48:13.755Z,36.60
2019-03-29T04:52:12.327Z,37.83
2019-03-29T04:56:10.995Z,39.40
2019-03-29T05:00:15.083Z,39.27
2019-03-29T05:04:13.696Z,28.67
2019-03-29T05:08:12.285Z,34.07
2019-03-29T05:12:10.928Z,32.73
2019-03-29T05:16:09.498Z,31.03
2019-03-29T05:20:08.737Z,33.70
2019-03-29T05:24:07.405Z,32.73
2019-03-29T05:28:06.053Z,31.30
2019-03-29T05:32:04.655Z,29.30
2019-03-29T05:36:03.334Z,29.07
2019-03-29T05:40:01.940Z,32.10
2019-03-29T05:44:00.538Z,34.80
2019-03-29T05:48:03.744Z,40.07
2019-03-29T05:52:02.314Z,33.47
2019-03-29T05:56:00.929Z,33.63
2019-03-29T05:59:59.562Z,35.50
2019-03-29T06:03:58.146Z,30.30
2019-03-29T06:08:01.108Z,29.50
2019-03-29T06:12:14.947Z,44.67
2019-03-29T06:16:13.522Z,34.70
2019-03-29T06:20:13.158Z,30.70
2019-03-29T06:24:11.767Z,32.43
2019-03-29T06:28:10.356Z,32.30
2019-03-29T06:32:08.923Z,30.50
2019-03-29T06:36:09.170Z,28.53
2019-03-29T06:40:10.470Z,26.53
2019-03-29T06:44:09.098Z,28.93
2019-03-29T06:48:09.223Z,27.90
2019-03-29T06:52:07.821Z,31.77
2019-03-29T06:56:06.418Z,37.73
2019-03-29T07:00:06.771Z,25.83
2019-03-29T07:04:05.368Z,27.77
2019-03-29T07:08:05.543Z,31.20
2019-03-29T07:12:06.087Z,33.00
2019-03-29T07:16:05.024Z,35.80
2019-03-29T07:20:05.870Z,39.87
2019-03-29T07:24:04.804Z,35.53
2019-03-29T07:28:03.423Z,39.57
2019-03-29T07:32:01.990Z,33.37
2019-03-29T07:36:00.818Z,38.50
2019-03-29T07:39:59.453Z,34.27
2019-03-29T07:43:58.011Z,40.13
2019-03-29T07:47:57.088Z,41.27
2019-03-29T07:51:55.678Z,34.90
2019-03-29T07:55:56.256Z,42.50
2019-03-29T07:59:58.370Z,38.70
2019-03-29T08:03:56.886Z,43.27
2019-03-29T08:07:55.786Z,37.17
2019-03-29T08:11:55.252Z,37.40
2019-03-29T08:15:54.215Z,34.10
2019-03-29T08:20:24.578Z,31.27
2019-03-29T08:23:55.764Z,35.50
2019-03-29T08:27:54.352Z,24.33
2019-03-29T08:31:55.461Z,17.20
2019-03-29T08:35:53.181Z,13.33
2019-03-29T08:39:51.767Z,10.37
2019-03-29T08:43:50.368Z,9.10
2019-03-29T08:47:48.982Z,12.57
2019-03-29T08:51:47.563Z,11.63
2019-03-29T08:55:46.527Z,10.10
2019-03-29T08:59:45.267Z,9.57
2019-03-29T09:03:44.064Z,11.77
2019-03-29T09:07:44.921Z,7.67
2019-03-29T09:11:48.103Z,8.00
2019-03-29T09:15:46.746Z,9.73
2019-03-29T09:19:45.354Z,11.93
2019-03-29T09:28:01.775Z,11.90
2019-03-29T09:32:00.649Z,10.47
2019-03-29T09:35:59.279Z,8.73
2019-03-29T09:40:00.901Z,7.83
2019-03-29T09:44:00.012Z,11.60
2019-03-29T09:47:59.552Z,7.27
2019-03-29T09:51:58.104Z,8.50
2019-03-29T09:56:01.310Z,7.50
2019-03-29T10:00:01.776Z,7.80
2019-03-29T10:04:01.885Z,6.47
2019-03-29T10:08:00.561Z,5.40
2019-03-29T10:12:02.471Z,9.37
2019-03-29T10:16:04.320Z,10.53
2019-03-29T10:20:03.998Z,6.00
2019-03-29T10:24:02.610Z,7.00
2019-03-29T10:28:01.200Z,6.30
2019-03-29T10:32:00.071Z,10.33
2019-03-29T10:35:58.847Z,9.60
2019-03-29T10:39:57.446Z,6.60
2019-03-29T10:43:56.092Z,6.50
2019-03-29T10:47:56.542Z,5.77
2019-03-29T10:51:55.143Z,6.83
2019-03-29T10:55:54.028Z,7.83
2019-03-29T10:59:52.783Z,10.87
2019-03-29T11:03:51.385Z,5.03
2019-03-29T11:07:50.196Z,7.97
2019-03-29T11:11:53.430Z,8.97
2019-03-29T11:15:52.083Z,7.33
2019-03-29T11:19:50.678Z,7.60
2019-03-29T11:23:49.628Z,8.80
2019-03-29T11:27:48.206Z,8.03
2019-03-29T11:31:46.867Z,8.03
2019-03-29T11:35:45.526Z,9.40
2019-03-29T11:39:44.148Z,7.47
2019-03-29T11:43:45.151Z,6.27
2019-03-29T11:47:43.932Z,7.23
2019-03-29T11:51:42.751Z,4.73
2019-03-29T11:55:43.948Z,5.97
2019-03-29T11:59:42.555Z,8.90
2019-03-29T12:03:42.683Z,7.23
2019-03-29T12:07:44.185Z,7.43
2019-03-29T12:11:42.756Z,8.60
2019-03-29T12:15:41.652Z,5.03
2019-03-29T12:19:40.291Z,5.23
2019-03-29T12:23:38.862Z,6.10
2019-03-29T12:27:37.455Z,6.63
2019-03-29T12:31:38.076Z,6.90
2019-03-29T12:35:44.120Z,8.40
2019-03-29T12:39:42.736Z,6.33
2019-03-29T12:43:54.845Z,5.37
2019-03-29T12:47:43.101Z,6.80
2019-03-29T12:51:41.708Z,6.57
2019-03-29T12:55:40.402Z,9.57
2019-03-29T12:59:39.080Z,6.40
2019-03-29T13:03:39.206Z,7.23
2019-03-29T13:07:37.827Z,6.00
2019-03-29T13:11:36.412Z,5.57
2019-03-29T13:15:34.987Z,8.87
2019-03-29T13:19:34.624Z,6.17
2019-03-29T13:23:33.284Z,6.30
2019-03-29T13:27:33.895Z,7.77
2019-03-29T13:31:32.766Z,6.37
2019-03-29T13:35:32.014Z,6.83
2019-03-29T13:39:30.602Z,5.97
2019-03-29T13:43:29.198Z,5.63
2019-03-29T13:47:27.853Z,6.20
2019-03-29T13:51:26.456Z,6.03
2019-03-29T13:55:25.122Z,5.23
2019-03-29T13:59:23.735Z,9.47
2019-03-29T14:03:22.385Z,5.67
2019-03-29T14:07:21.887Z,7.47
2019-03-29T14:11:20.535Z,7.10
2019-03-29T14:15:21.015Z,6.00
2019-03-29T14:19:20.803Z,6.83
2019-03-29T14:23:20.967Z,7.70
2019-03-29T14:27:24.127Z,5.50
2019-03-29T14:31:24.332Z,7.67
2019-03-29T14:35:22.977Z,11.63
2019-03-29T14:39:21.547Z,9.53
2019-03-29T14:43:20.438Z,4.87
2019-03-29T14:47:19.023Z,6.27
2019-03-29T14:51:17.635Z,8.03
2019-03-29T14:55:16.244Z,7.13
2019-03-29T14:59:14.881Z,3.83
2019-03-29T15:03:14.304Z,4.03
2019-03-29T15:07:13.726Z,5.10
2019-03-29T15:11:22.078Z,4.13
2019-03-29T15:15:12.708Z,6.37
2019-03-29T15:19:11.285Z,3.93
2019-03-29T15:23:09.954Z,4.77
2019-03-29T15:27:10.628Z,4.63
2019-03-29T15:31:09.997Z,3.93
2019-03-29T15:35:09.576Z,3.87
2019-03-29T15:39:08.906Z,7.65
2019-03-29T15:43:07.499Z,4.45
2019-03-29T15:47:06.173Z,4.45
2019-03-29T15:51:05.295Z,3.47
2019-03-29T15:55:11.228Z,6.97
2019-03-29T15:59:08.665Z,3.95
2019-03-29T16:03:07.478Z,3.80
2019-03-29T16:07:10.578Z,5.12
2019-03-29T16:11:09.514Z,2.87
2019-03-29T16:15:12.081Z,3.58
2019-03-29T16:19:11.041Z,3.72
2019-03-29T16:23:10.041Z,6.55
2019-03-29T16:27:10.680Z,3.40
2019-03-29T16:31:09.349Z,3.15
2019-03-29T16:35:09.119Z,3.83
2019-03-29T16:39:08.454Z,4.37
2019-03-29T16:43:08.357Z,3.57
2019-03-29T16:47:06.958Z,3.87
2019-03-29T16:51:05.558Z,6.80
2019-03-29T16:55:13.090Z,4.50
2019-03-29T16:59:06.473Z,5.93
2019-03-29T17:03:05.197Z,3.60
2019-03-29T17:07:04.955Z,3.60
2019-03-29T17:11:03.874Z,4.10
2019-03-29T17:15:03.951Z,8.47
2019-03-29T17:19:02.507Z,5.43
2019-03-29T17:23:01.145Z,7.37
2019-03-29T17:27:01.786Z,4.63
2019-03-29T17:31:01.958Z,4.90
2019-03-29T17:35:00.535Z,6.63
2019-03-29T17:39:02.914Z,6.10
2019-03-29T17:43:03.490Z,5.90
2019-03-29T17:47:01.779Z,5.70
2019-03-29T17:51:00.460Z,5.23
2019-03-29T17:54:59.052Z,8.47
2019-03-29T17:58:57.752Z,8.17
2019-03-29T18:02:56.371Z,6.00
2019-03-29T18:06:55.185Z,12.90
2019-03-29T18:10:53.761Z,8.47
2019-03-29T18:14:52.410Z,10.03
2019-03-29T18:18:51.037Z,11.33
2019-03-29T18:22:53.538Z,15.57
2019-03-29T18:26:54.127Z,12.50
2019-03-29T18:30:52.580Z,11.57
2019-03-29T18:34:53.260Z,12.60
2019-03-29T18:38:52.322Z,15.73
2019-03-29T18:42:50.934Z,14.60
2019-03-29T18:46:51.508Z,13.87
2019-03-29T18:50:50.077Z,12.97
2019-03-29T18:54:48.687Z,12.33
2019-03-29T18:58:47.448Z,14.10
2019-03-29T19:02:46.587Z,11.47
2019-03-29T19:06:45.184Z,17.17
2019-03-29T19:10:44.723Z,17.77
2019-03-29T19:14:43.313Z,15.07
2019-03-29T19:18:42.151Z,18.27
2019-03-29T19:22:43.595Z,15.93
2019-03-29T19:26:42.309Z,15.70
2019-03-29T19:30:40.981Z,19.67
2019-03-29T19:34:53.070Z,21.93
2019-03-29T19:38:48.920Z,17.00
2019-03-29T19:42:48.114Z,16.33
2019-03-29T19:46:48.898Z,17.97
2019-03-29T19:50:47.504Z,20.93
2019-03-29T19:54:46.481Z,20.63
2019-03-29T19:58:45.219Z,18.57
2019-03-29T20:02:45.580Z,20.17
2019-03-29T20:06:44.913Z,22.83
2019-03-29T20:10:43.648Z,21.00
2019-03-29T20:14:43.955Z,21.37
2019-03-29T20:18:44.102Z,20.73
2019-03-29T20:22:42.852Z,20.70
2019-03-29T20:26:41.435Z,22.00
2019-03-29T20:30:40.113Z,24.77
2019-03-29T20:34:43.491Z,22.97
2019-03-29T20:38:45.061Z,24.77
2019-03-29T20:42:43.806Z,22.97
2019-03-29T20:46:42.386Z,24.23
2019-03-29T20:50:44.756Z,23.63
2019-03-29T20:54:43.371Z,24.63
2019-03-29T20:58:42.019Z,22.03
2019-03-29T21:02:41.412Z,28.47
2019-03-29T21:06:40.438Z,20.80
2019-03-29T21:10:39.015Z,20.30
2019-03-29T21:14:37.607Z,20.97
2019-03-29T21:18:36.181Z,18.77
2019-03-29T21:22:34.785Z,15.87
2019-03-29T21:26:35.485Z,20.27
2019-03-29T21:30:34.154Z,15.17
2019-03-29T21:34:32.784Z,13.70
2019-03-29T21:38:31.357Z,20.40
2019-03-29T21:42:29.951Z,14.43
2019-03-29T21:46:28.568Z,15.63
2019-03-29T21:50:27.243Z,11.33
2019-03-29T21:54:26.249Z,11.20
2019-03-29T21:58:24.930Z,19.27
2019-03-29T22:02:23.586Z,14.13
2019-03-29T22:06:22.190Z,14.98
2019-03-29T22:10:20.812Z,11.37
2019-03-29T22:14:19.493Z,10.60
2019-03-29T22:18:18.033Z,8.93
2019-03-29T22:22:16.621Z,13.77
2019-03-29T22:26:15.209Z,12.13
2019-03-29T22:30:15.922Z,8.40
2019-03-29T22:34:14.547Z,8.27
2019-03-29T22:38:13.067Z,9.10
2019-03-29T22:42:12.397Z,7.77
2019-03-29T22:46:11.093Z,10.00
2019-03-29T22:50:11.018Z,8.67
2019-03-29T22:54:09.567Z,10.37
2019-03-29T22:58:08.147Z,8.13
2019-03-29T23:02:07.099Z,9.47
2019-03-29T23:06:07.769Z,8.73
2019-03-29T23:10:07.679Z,7.20
2019-03-29T23:14:06.650Z,7.33
2019-03-29T23:18:05.297Z,8.07
2019-03-29T23:22:03.929Z,11.53
2019-03-29T23:26:04.549Z,6.10
2019-03-29T23:30:03.472Z,7.37
2019-03-29T23:34:02.057Z,6.97
2019-03-29T23:38:00.978Z,8.17
2019-03-29T23:41:59.582Z,10.27
2019-03-29T23:45:58.177Z,7.57
2019-03-29T23:49:57.069Z,7.27
2019-03-29T23:53:55.630Z,6.77
2019-03-29T23:57:54.269Z,10.03
